sensor_id;sensor_type;location;lat;lon;timestamp;temperature;humidity
12025;DHT22;6073;53.230;10.444;2024-02-26T00:02:16;0.90;99.90
12025;DHT22;6073;53.230;10.444;2024-02-26T00:04:42;0.90;99.90
12025;DHT22;6073;53.230;10.444;2024-02-26T00:07:07;0.90;99.90
12025;DHT22;6073;53.230;10.444;2024-02-26T00:09:33;0.90;99.90
12025;DHT22;6073;53.230;10.444;2024-02-26T00:12:02;0.80;99.90
12025;DHT22;6073;53.230;10.444;2024-02-26T00:14:32;0.80;99.90
12025;DHT22;6073;53.230;10.444;2024-02-26T00:16:57;0.80;99.90
12025;DHT22;6073;53.230;10.444;2024-02-26T00:19:23;0.80;99.90
12025;DHT22;6073;53.230;10.444;2024-02-26T00:21:48;0.70;99.90
12025;DHT22;6073;53.230;10.444;2024-02-26T00:24:14;0.70;99.90
12025;DHT22;6073;53.230;10.444;2024-02-26T00:26:39;0.60;99.90
12025;DHT22;6073;53.230;10.444;2024-02-26T00:29:05;0.60;99.90
12025;DHT22;6073;53.230;10.444;2024-02-26T00:31:31;0.60;99.90
12025;DHT22;6073;53.230;10.444;2024-02-26T00:33:56;0.60;99.90
12025;DHT22;6073;53.230;10.444;2024-02-26T00:36:22;0.60;99.90
12025;DHT22;6073;53.230;10.444;2024-02-26T00:38:48;0.70;99.90
12025;DHT22;6073;53.230;10.444;2024-02-26T00:41:20;0.80;99.90
12025;DHT22;6073;53.230;10.444;2024-02-26T00:43:46;0.70;99.90
12025;DHT22;6073;53.230;10.444;2024-02-26T00:46:12;0.60;99.90
12025;DHT22;6073;53.230;10.444;2024-02-26T00:48:37;0.60;99.90
12025;DHT22;6073;53.230;10.444;2024-02-26T00:51:04;0.60;99.90
12025;DHT22;6073;53.230;10.444;2024-02-26T00:53:33;0.60;99.90
12025;DHT22;6073;53.230;10.444;2024-02-26T00:55:59;0.60;99.90
12025;DHT22;6073;53.230;10.444;2024-02-26T00:58:25;0.50;99.90
12025;DHT22;6073;53.230;10.444;2024-02-26T01:00:51;0.40;99.90
12025;DHT22;6073;53.230;10.444;2024-02-26T01:03:17;0.40;99.90
12025;DHT22;6073;53.230;10.444;2024-02-26T01:05:43;0.40;99.90
12025;DHT22;6073;53.230;10.444;2024-02-26T01:08:09;0.40;99.90
12025;DHT22;6073;53.230;10.444;2024-02-26T01:10:34;0.50;99.90
12025;DHT22;6073;53.230;10.444;2024-02-26T01:13:00;0.30;99.90
12025;DHT22;6073;53.230;10.444;2024-02-26T01:15:26;0.30;99.90
12025;DHT22;6073;53.230;10.444;2024-02-26T01:17:52;0.20;99.90
12025;DHT22;6073;53.230;10.444;2024-02-26T01:20:17;0.10;99.90
12025;DHT22;6073;53.230;10.444;2024-02-26T01:22:43;0.10;99.90
12025;DHT22;6073;53.230;10.444;2024-02-26T01:25:09;0.20;99.90
12025;DHT22;6073;53.230;10.444;2024-02-26T01:27:35;0.20;99.90
12025;DHT22;6073;53.230;10.444;2024-02-26T01:30:03;0.20;99.90
12025;DHT22;6073;53.230;10.444;2024-02-26T01:32:29;0.20;99.90
12025;DHT22;6073;53.230;10.444;2024-02-26T01:34:55;0.10;99.90
12025;DHT22;6073;53.230;10.444;2024-02-26T01:37:21;0.00;99.90
12025;DHT22;6073;53.230;10.444;2024-02-26T01:39:46;0.00;99.90
12025;DHT22;6073;53.230;10.444;2024-02-26T01:42:12;0.10;99.90
12025;DHT22;6073;53.230;10.444;2024-02-26T01:44:38;0.10;99.90
12025;DHT22;6073;53.230;10.444;2024-02-26T01:47:05;0.10;99.90
12025;DHT22;6073;53.230;10.444;2024-02-26T01:49:33;0.10;99.90
12025;DHT22;6073;53.230;10.444;2024-02-26T01:52:00;0.10;99.90
12025;DHT22;6073;53.230;10.444;2024-02-26T01:54:27;0.10;99.90
12025;DHT22;6073;53.230;10.444;2024-02-26T01:56:53;0.20;99.90
12025;DHT22;6073;53.230;10.444;2024-02-26T01:59:19;0.20;99.90
12025;DHT22;6073;53.230;10.444;2024-02-26T02:01:49;0.10;99.90
12025;DHT22;6073;53.230;10.444;2024-02-26T02:04:17;0.10;99.90
12025;DHT22;6073;53.230;10.444;2024-02-26T02:06:45;0.10;99.90
12025;DHT22;6073;53.230;10.444;2024-02-26T02:09:11;0.10;99.90
12025;DHT22;6073;53.230;10.444;2024-02-26T02:11:37;0.10;99.90
12025;DHT22;6073;53.230;10.444;2024-02-26T02:14:03;0.10;99.90
12025;DHT22;6073;53.230;10.444;2024-02-26T02:16:29;0.10;99.90
12025;DHT22;6073;53.230;10.444;2024-02-26T02:18:54;0.00;99.90
12025;DHT22;6073;53.230;10.444;2024-02-26T02:21:20;0.00;99.90
12025;DHT22;6073;53.230;10.444;2024-02-26T02:23:45;0.00;99.90
12025;DHT22;6073;53.230;10.444;2024-02-26T02:26:13;0.00;99.90
12025;DHT22;6073;53.230;10.444;2024-02-26T02:28:39;0.00;99.90
12025;DHT22;6073;53.230;10.444;2024-02-26T02:31:05;-0.10;99.90
12025;DHT22;6073;53.230;10.444;2024-02-26T02:33:32;-0.10;99.90
12025;DHT22;6073;53.230;10.444;2024-02-26T02:35:58;-0.10;99.90
12025;DHT22;6073;53.230;10.444;2024-02-26T02:38:24;-0.10;99.90
12025;DHT22;6073;53.230;10.444;2024-02-26T02:40:51;-0.10;99.90
12025;DHT22;6073;53.230;10.444;2024-02-26T02:43:17;-0.10;99.90
12025;DHT22;6073;53.230;10.444;2024-02-26T02:45:43;-0.10;99.90
12025;DHT22;6073;53.230;10.444;2024-02-26T02:48:09;-0.10;99.90
12025;DHT22;6073;53.230;10.444;2024-02-26T02:50:34;-0.10;99.90
12025;DHT22;6073;53.230;10.444;2024-02-26T02:53:00;0.00;99.90
12025;DHT22;6073;53.230;10.444;2024-02-26T02:55:25;-0.10;99.90
12025;DHT22;6073;53.230;10.444;2024-02-26T02:57:51;-0.10;99.90
12025;DHT22;6073;53.230;10.444;2024-02-26T03:00:17;-0.10;99.90
12025;DHT22;6073;53.230;10.444;2024-02-26T03:02:42;-0.20;99.90
12025;DHT22;6073;53.230;10.444;2024-02-26T03:05:10;-0.10;99.90
12025;DHT22;6073;53.230;10.444;2024-02-26T03:07:36;-0.20;99.90
12025;DHT22;6073;53.230;10.444;2024-02-26T03:10:01;-0.20;99.90
12025;DHT22;6073;53.230;10.444;2024-02-26T03:12:27;-0.20;99.90
12025;DHT22;6073;53.230;10.444;2024-02-26T03:14:53;-0.20;99.90
12025;DHT22;6073;53.230;10.444;2024-02-26T03:17:20;-0.30;99.90
12025;DHT22;6073;53.230;10.444;2024-02-26T03:19:46;-0.30;99.90
12025;DHT22;6073;53.230;10.444;2024-02-26T03:22:13;-0.30;99.90
12025;DHT22;6073;53.230;10.444;2024-02-26T03:24:38;-0.30;99.90
12025;DHT22;6073;53.230;10.444;2024-02-26T03:27:04;-0.50;99.90
12025;DHT22;6073;53.230;10.444;2024-02-26T03:29:35;-0.50;99.90
12025;DHT22;6073;53.230;10.444;2024-02-26T03:32:01;-0.40;99.90
12025;DHT22;6073;53.230;10.444;2024-02-26T03:34:27;-0.50;99.90
12025;DHT22;6073;53.230;10.444;2024-02-26T03:36:53;-0.50;99.90
12025;DHT22;6073;53.230;10.444;2024-02-26T03:39:19;-0.50;99.90
12025;DHT22;6073;53.230;10.444;2024-02-26T03:41:44;-0.40;99.90
12025;DHT22;6073;53.230;10.444;2024-02-26T03:44:10;-0.50;99.90
12025;DHT22;6073;53.230;10.444;2024-02-26T03:46:36;-0.50;99.90
12025;DHT22;6073;53.230;10.444;2024-02-26T03:49:01;-0.50;99.90
12025;DHT22;6073;53.230;10.444;2024-02-26T03:51:27;-0.60;99.90
12025;DHT22;6073;53.230;10.444;2024-02-26T03:53:57;-0.60;99.90
12025;DHT22;6073;53.230;10.444;2024-02-26T03:56:23;-0.70;99.90
12025;DHT22;6073;53.230;10.444;2024-02-26T03:58:49;-0.70;99.90
12025;DHT22;6073;53.230;10.444;2024-02-26T04:01:14;-0.60;99.90
12025;DHT22;6073;53.230;10.444;2024-02-26T04:03:41;-0.60;99.90
12025;DHT22;6073;53.230;10.444;2024-02-26T04:06:09;-0.60;99.90
12025;DHT22;6073;53.230;10.444;2024-02-26T04:08:36;-0.60;99.90
12025;DHT22;6073;53.230;10.444;2024-02-26T04:11:02;-0.60;99.90
12025;DHT22;6073;53.230;10.444;2024-02-26T04:13:32;-0.50;99.90
12025;DHT22;6073;53.230;10.444;2024-02-26T04:15:58;-0.50;99.90
12025;DHT22;6073;53.230;10.444;2024-02-26T04:18:33;-0.40;99.90
12025;DHT22;6073;53.230;10.444;2024-02-26T04:21:01;-0.40;99.90
12025;DHT22;6073;53.230;10.444;2024-02-26T04:23:27;-0.40;99.90
12025;DHT22;6073;53.230;10.444;2024-02-26T04:25:52;-0.50;99.90
12025;DHT22;6073;53.230;10.444;2024-02-26T04:28:19;-0.50;99.90
12025;DHT22;6073;53.230;10.444;2024-02-26T04:30:46;-0.50;99.90
12025;DHT22;6073;53.230;10.444;2024-02-26T04:33:12;-0.50;99.90
12025;DHT22;6073;53.230;10.444;2024-02-26T04:35:38;-0.40;99.90
12025;DHT22;6073;53.230;10.444;2024-02-26T04:38:03;-0.50;99.90
12025;DHT22;6073;53.230;10.444;2024-02-26T04:40:29;-0.50;99.90
12025;DHT22;6073;53.230;10.444;2024-02-26T04:42:54;-0.50;99.90
12025;DHT22;6073;53.230;10.444;2024-02-26T04:45:20;-0.50;99.90
12025;DHT22;6073;53.230;10.444;2024-02-26T04:47:46;-0.50;99.90
12025;DHT22;6073;53.230;10.444;2024-02-26T04:50:12;-0.50;99.90
12025;DHT22;6073;53.230;10.444;2024-02-26T04:52:37;-0.60;99.90
12025;DHT22;6073;53.230;10.444;2024-02-26T04:55:03;-0.50;99.90
12025;DHT22;6073;53.230;10.444;2024-02-26T04:57:29;-0.50;99.90
12025;DHT22;6073;53.230;10.444;2024-02-26T04:59:55;-0.40;99.90
12025;DHT22;6073;53.230;10.444;2024-02-26T05:02:20;-0.40;99.90
12025;DHT22;6073;53.230;10.444;2024-02-26T05:04:46;-0.40;99.90
12025;DHT22;6073;53.230;10.444;2024-02-26T05:07:12;-0.50;99.90
12025;DHT22;6073;53.230;10.444;2024-02-26T05:09:37;-0.60;99.90
12025;DHT22;6073;53.230;10.444;2024-02-26T05:12:03;-0.60;99.90
12025;DHT22;6073;53.230;10.444;2024-02-26T05:14:29;-0.50;99.90
12025;DHT22;6073;53.230;10.444;2024-02-26T05:16:54;-0.50;99.90
12025;DHT22;6073;53.230;10.444;2024-02-26T05:19:21;-0.50;99.90
12025;DHT22;6073;53.230;10.444;2024-02-26T05:21:46;-0.40;99.90
12025;DHT22;6073;53.230;10.444;2024-02-26T05:24:14;-0.50;99.90
12025;DHT22;6073;53.230;10.444;2024-02-26T05:26:41;-0.50;99.90
12025;DHT22;6073;53.230;10.444;2024-02-26T05:29:06;-0.40;99.90
12025;DHT22;6073;53.230;10.444;2024-02-26T05:31:32;-0.40;99.90
12025;DHT22;6073;53.230;10.444;2024-02-26T05:33:57;-0.40;99.90
12025;DHT22;6073;53.230;10.444;2024-02-26T05:36:29;-0.30;99.90
12025;DHT22;6073;53.230;10.444;2024-02-26T05:42:47;-0.30;99.90
12025;DHT22;6073;53.230;10.444;2024-02-26T05:45:27;-0.30;99.90
12025;DHT22;6073;53.230;10.444;2024-02-26T05:51:30;-0.30;99.90
12025;DHT22;6073;53.230;10.444;2024-02-26T05:54:01;-0.20;99.90
12025;DHT22;6073;53.230;10.444;2024-02-26T05:56:34;-0.20;99.90
12025;DHT22;6073;53.230;10.444;2024-02-26T05:59:00;-0.20;99.90
12025;DHT22;6073;53.230;10.444;2024-02-26T06:01:28;-0.20;99.90
12025;DHT22;6073;53.230;10.444;2024-02-26T06:04:01;-0.20;99.90
12025;DHT22;6073;53.230;10.444;2024-02-26T06:06:32;-0.10;99.90
12025;DHT22;6073;53.230;10.444;2024-02-26T06:09:02;-0.10;99.90
12025;DHT22;6073;53.230;10.444;2024-02-26T06:11:34;-0.10;99.90
12025;DHT22;6073;53.230;10.444;2024-02-26T06:14:02;-0.10;99.90
12025;DHT22;6073;53.230;10.444;2024-02-26T06:16:28;0.00;99.90
12025;DHT22;6073;53.230;10.444;2024-02-26T06:18:53;-0.10;99.90
12025;DHT22;6073;53.230;10.444;2024-02-26T06:21:27;-0.10;99.90
12025;DHT22;6073;53.230;10.444;2024-02-26T06:24:17;-0.10;99.90
12025;DHT22;6073;53.230;10.444;2024-02-26T06:27:01;0.00;99.90
12025;DHT22;6073;53.230;10.444;2024-02-26T06:32:39;0.00;99.90
12025;DHT22;6073;53.230;10.444;2024-02-26T06:35:20;0.10;99.90
12025;DHT22;6073;53.230;10.444;2024-02-26T06:37:53;0.20;99.90
12025;DHT22;6073;53.230;10.444;2024-02-26T06:40:24;0.20;99.90
12025;DHT22;6073;53.230;10.444;2024-02-26T06:43:04;0.30;99.90
12025;DHT22;6073;53.230;10.444;2024-02-26T06:45:35;0.40;99.90
12025;DHT22;6073;53.230;10.444;2024-02-26T06:48:04;0.50;99.90
12025;DHT22;6073;53.230;10.444;2024-02-26T06:50:29;0.60;99.90
12025;DHT22;6073;53.230;10.444;2024-02-26T06:52:55;0.70;99.90
12025;DHT22;6073;53.230;10.444;2024-02-26T06:55:20;0.80;99.90
12025;DHT22;6073;53.230;10.444;2024-02-26T06:57:46;0.90;99.90
12025;DHT22;6073;53.230;10.444;2024-02-26T07:01:02;0.90;99.90
12025;DHT22;6073;53.230;10.444;2024-02-26T07:03:37;1.00;99.90
12025;DHT22;6073;53.230;10.444;2024-02-26T07:06:19;1.00;99.90
12025;DHT22;6073;53.230;10.444;2024-02-26T07:09:01;1.10;99.90
12025;DHT22;6073;53.230;10.444;2024-02-26T07:11:39;1.10;99.90
12025;DHT22;6073;53.230;10.444;2024-02-26T07:14:21;1.20;99.90
12025;DHT22;6073;53.230;10.444;2024-02-26T07:17:34;1.30;99.90
12025;DHT22;6073;53.230;10.444;2024-02-26T07:19:49;1.30;99.90
12025;DHT22;6073;53.230;10.444;2024-02-26T07:22:15;1.40;99.90
12025;DHT22;6073;53.230;10.444;2024-02-26T07:24:49;1.40;99.90
12025;DHT22;6073;53.230;10.444;2024-02-26T07:27:18;1.40;99.90
12025;DHT22;6073;53.230;10.444;2024-02-26T07:29:46;1.50;99.90
12025;DHT22;6073;53.230;10.444;2024-02-26T07:32:15;1.50;99.90
12025;DHT22;6073;53.230;10.444;2024-02-26T07:34:41;1.60;99.90
12025;DHT22;6073;53.230;10.444;2024-02-26T07:37:11;1.70;99.90
12025;DHT22;6073;53.230;10.444;2024-02-26T07:39:36;1.80;99.90
12025;DHT22;6073;53.230;10.444;2024-02-26T07:42:02;1.80;99.90
12025;DHT22;6073;53.230;10.444;2024-02-26T07:44:28;1.90;99.90
12025;DHT22;6073;53.230;10.444;2024-02-26T07:46:53;2.00;99.90
12025;DHT22;6073;53.230;10.444;2024-02-26T07:49:19;2.00;99.90
12025;DHT22;6073;53.230;10.444;2024-02-26T07:51:44;2.10;99.90
12025;DHT22;6073;53.230;10.444;2024-02-26T07:54:10;2.10;99.90
12025;DHT22;6073;53.230;10.444;2024-02-26T07:56:35;2.10;99.90
12025;DHT22;6073;53.230;10.444;2024-02-26T07:59:01;2.10;99.90
12025;DHT22;6073;53.230;10.444;2024-02-26T08:01:27;2.20;99.90
12025;DHT22;6073;53.230;10.444;2024-02-26T08:03:55;2.30;99.90
12025;DHT22;6073;53.230;10.444;2024-02-26T08:06:21;2.30;99.90
12025;DHT22;6073;53.230;10.444;2024-02-26T08:08:46;2.30;99.90
12025;DHT22;6073;53.230;10.444;2024-02-26T08:11:14;2.40;99.90
12025;DHT22;6073;53.230;10.444;2024-02-26T08:13:43;2.40;99.90
12025;DHT22;6073;53.230;10.444;2024-02-26T08:16:08;2.50;99.90
12025;DHT22;6073;53.230;10.444;2024-02-26T08:18:34;2.50;99.90
12025;DHT22;6073;53.230;10.444;2024-02-26T08:21:00;2.60;99.90
12025;DHT22;6073;53.230;10.444;2024-02-26T08:23:25;2.60;99.90
12025;DHT22;6073;53.230;10.444;2024-02-26T08:25:51;2.60;99.90
12025;DHT22;6073;53.230;10.444;2024-02-26T08:28:17;2.60;99.90
12025;DHT22;6073;53.230;10.444;2024-02-26T08:30:43;2.70;99.90
12025;DHT22;6073;53.230;10.444;2024-02-26T08:33:09;2.70;99.90
12025;DHT22;6073;53.230;10.444;2024-02-26T08:35:35;2.70;99.90
12025;DHT22;6073;53.230;10.444;2024-02-26T08:38:01;2.80;99.90
12025;DHT22;6073;53.230;10.444;2024-02-26T08:40:28;2.80;99.90
12025;DHT22;6073;53.230;10.444;2024-02-26T08:42:53;2.90;99.90
12025;DHT22;6073;53.230;10.444;2024-02-26T08:45:19;3.00;99.90
12025;DHT22;6073;53.230;10.444;2024-02-26T08:47:45;3.10;99.90
12025;DHT22;6073;53.230;10.444;2024-02-26T08:50:29;3.20;99.90
12025;DHT22;6073;53.230;10.444;2024-02-26T08:52:55;3.30;99.90
12025;DHT22;6073;53.230;10.444;2024-02-26T08:55:28;3.30;99.90
12025;DHT22;6073;53.230;10.444;2024-02-26T08:57:56;3.40;99.90
12025;DHT22;6073;53.230;10.444;2024-02-26T09:00:22;3.40;99.90
12025;DHT22;6073;53.230;10.444;2024-02-26T09:02:47;3.50;99.90
12025;DHT22;6073;53.230;10.444;2024-02-26T09:05:14;3.50;99.90
12025;DHT22;6073;53.230;10.444;2024-02-26T09:07:40;3.50;99.90
12025;DHT22;6073;53.230;10.444;2024-02-26T09:10:06;3.60;99.90
12025;DHT22;6073;53.230;10.444;2024-02-26T09:12:39;3.60;99.90
12025;DHT22;6073;53.230;10.444;2024-02-26T09:15:07;3.70;99.90
12025;DHT22;6073;53.230;10.444;2024-02-26T09:17:32;3.70;99.90
12025;DHT22;6073;53.230;10.444;2024-02-26T09:19:58;3.80;99.90
12025;DHT22;6073;53.230;10.444;2024-02-26T09:22:24;3.80;99.90
12025;DHT22;6073;53.230;10.444;2024-02-26T09:25:10;3.80;99.90
12025;DHT22;6073;53.230;10.444;2024-02-26T09:27:35;3.90;99.90
12025;DHT22;6073;53.230;10.444;2024-02-26T09:30:01;3.80;99.90
12025;DHT22;6073;53.230;10.444;2024-02-26T09:32:26;3.90;99.90
12025;DHT22;6073;53.230;10.444;2024-02-26T09:34:52;3.90;99.90
12025;DHT22;6073;53.230;10.444;2024-02-26T09:37:17;3.90;99.90
12025;DHT22;6073;53.230;10.444;2024-02-26T09:39:43;3.90;99.90
12025;DHT22;6073;53.230;10.444;2024-02-26T09:42:09;4.00;99.90
12025;DHT22;6073;53.230;10.444;2024-02-26T09:44:40;4.00;99.90
12025;DHT22;6073;53.230;10.444;2024-02-26T09:47:09;4.10;99.90
12025;DHT22;6073;53.230;10.444;2024-02-26T09:49:36;4.10;99.90
12025;DHT22;6073;53.230;10.444;2024-02-26T09:52:03;4.20;99.90
12025;DHT22;6073;53.230;10.444;2024-02-26T09:54:32;4.30;99.90
12025;DHT22;6073;53.230;10.444;2024-02-26T09:57:00;4.40;99.90
12025;DHT22;6073;53.230;10.444;2024-02-26T09:59:29;4.50;99.90
12025;DHT22;6073;53.230;10.444;2024-02-26T10:01:59;4.60;99.90
12025;DHT22;6073;53.230;10.444;2024-02-26T10:04:34;4.60;99.90
12025;DHT22;6073;53.230;10.444;2024-02-26T10:07:00;4.60;99.90
12025;DHT22;6073;53.230;10.444;2024-02-26T10:09:28;4.70;99.90
12025;DHT22;6073;53.230;10.444;2024-02-26T10:11:54;4.80;99.90
12025;DHT22;6073;53.230;10.444;2024-02-26T10:14:20;4.80;99.90
12025;DHT22;6073;53.230;10.444;2024-02-26T10:16:46;4.80;99.90
12025;DHT22;6073;53.230;10.444;2024-02-26T10:19:25;4.90;99.90
12025;DHT22;6073;53.230;10.444;2024-02-26T10:21:58;5.10;99.90
12025;DHT22;6073;53.230;10.444;2024-02-26T10:24:43;5.20;99.90
12025;DHT22;6073;53.230;10.444;2024-02-26T10:27:08;5.40;99.90
12025;DHT22;6073;53.230;10.444;2024-02-26T10:29:38;5.40;99.90
12025;DHT22;6073;53.230;10.444;2024-02-26T10:32:24;5.60;99.90
12025;DHT22;6073;53.230;10.444;2024-02-26T10:34:55;5.70;99.90
12025;DHT22;6073;53.230;10.444;2024-02-26T10:37:22;6.10;99.90
12025;DHT22;6073;53.230;10.444;2024-02-26T10:39:51;6.20;99.90
12025;DHT22;6073;53.230;10.444;2024-02-26T10:42:16;6.40;99.90
12025;DHT22;6073;53.230;10.444;2024-02-26T10:45:15;6.60;99.90
12025;DHT22;6073;53.230;10.444;2024-02-26T10:47:41;6.70;99.90
12025;DHT22;6073;53.230;10.444;2024-02-26T10:50:16;6.80;99.90
12025;DHT22;6073;53.230;10.444;2024-02-26T10:52:42;7.00;99.90
12025;DHT22;6073;53.230;10.444;2024-02-26T10:55:15;7.10;99.90
12025;DHT22;6073;53.230;10.444;2024-02-26T10:57:44;7.30;99.90
12025;DHT22;6073;53.230;10.444;2024-02-26T11:00:14;7.40;99.90
12025;DHT22;6073;53.230;10.444;2024-02-26T11:06:18;7.60;99.90
12025;DHT22;6073;53.230;10.444;2024-02-26T11:08:48;7.80;99.90
12025;DHT22;6073;53.230;10.444;2024-02-26T11:11:25;7.90;99.90
12025;DHT22;6073;53.230;10.444;2024-02-26T11:14:04;8.00;99.90
12025;DHT22;6073;53.230;10.444;2024-02-26T11:16:31;8.00;99.90
12025;DHT22;6073;53.230;10.444;2024-02-26T11:22:33;8.30;99.90
12025;DHT22;6073;53.230;10.444;2024-02-26T11:25:02;8.30;99.90
12025;DHT22;6073;53.230;10.444;2024-02-26T11:27:39;8.40;99.90
12025;DHT22;6073;53.230;10.444;2024-02-26T11:32:46;8.50;99.90
12025;DHT22;6073;53.230;10.444;2024-02-26T11:35:18;8.40;99.90
12025;DHT22;6073;53.230;10.444;2024-02-26T11:38:20;8.60;99.90
12025;DHT22;6073;53.230;10.444;2024-02-26T11:40:54;8.70;99.90
12025;DHT22;6073;53.230;10.444;2024-02-26T11:43:53;8.70;99.90
12025;DHT22;6073;53.230;10.444;2024-02-26T11:46:33;8.70;99.90
12025;DHT22;6073;53.230;10.444;2024-02-26T11:49:02;8.80;99.90
12025;DHT22;6073;53.230;10.444;2024-02-26T11:51:33;8.80;99.90
12025;DHT22;6073;53.230;10.444;2024-02-26T11:54:00;8.90;99.90
12025;DHT22;6073;53.230;10.444;2024-02-26T11:56:25;8.90;99.90
12025;DHT22;6073;53.230;10.444;2024-02-26T11:59:08;8.90;99.90
12025;DHT22;6073;53.230;10.444;2024-02-26T12:01:47;9.00;99.90
12025;DHT22;6073;53.230;10.444;2024-02-26T12:04:19;9.10;99.90
12025;DHT22;6073;53.230;10.444;2024-02-26T12:09:42;9.30;99.90
12025;DHT22;6073;53.230;10.444;2024-02-26T12:12:09;9.40;99.90
12025;DHT22;6073;53.230;10.444;2024-02-26T12:14:56;9.40;99.90
12025;DHT22;6073;53.230;10.444;2024-02-26T12:17:25;9.40;99.90
12025;DHT22;6073;53.230;10.444;2024-02-26T12:19:51;9.40;99.90
12025;DHT22;6073;53.230;10.444;2024-02-26T12:22:18;9.40;99.90
12025;DHT22;6073;53.230;10.444;2024-02-26T12:24:44;9.40;99.90
12025;DHT22;6073;53.230;10.444;2024-02-26T12:27:10;9.40;99.90
12025;DHT22;6073;53.230;10.444;2024-02-26T12:29:36;9.40;99.90
12025;DHT22;6073;53.230;10.444;2024-02-26T12:32:10;9.50;99.90
12025;DHT22;6073;53.230;10.444;2024-02-26T12:35:06;9.50;99.90
12025;DHT22;6073;53.230;10.444;2024-02-26T12:37:35;9.40;99.90
12025;DHT22;6073;53.230;10.444;2024-02-26T12:40:05;9.50;99.90
12025;DHT22;6073;53.230;10.444;2024-02-26T12:42:38;9.60;99.90
12025;DHT22;6073;53.230;10.444;2024-02-26T12:48:18;9.40;99.90
12025;DHT22;6073;53.230;10.444;2024-02-26T12:50:45;9.40;99.90
12025;DHT22;6073;53.230;10.444;2024-02-26T12:53:12;9.20;99.90
12025;DHT22;6073;53.230;10.444;2024-02-26T12:56:05;9.10;99.90
12025;DHT22;6073;53.230;10.444;2024-02-26T12:58:43;9.10;99.90
12025;DHT22;6073;53.230;10.444;2024-02-26T13:01:14;9.10;99.90
12025;DHT22;6073;53.230;10.444;2024-02-26T13:04:04;9.10;99.90
12025;DHT22;6073;53.230;10.444;2024-02-26T13:12:35;9.00;99.90
12025;DHT22;6073;53.230;10.444;2024-02-26T13:15:05;9.00;99.90
12025;DHT22;6073;53.230;10.444;2024-02-26T13:20:46;9.10;99.90
12025;DHT22;6073;53.230;10.444;2024-02-26T13:23:35;9.10;99.90
12025;DHT22;6073;53.230;10.444;2024-02-26T13:26:16;9.20;99.90
12025;DHT22;6073;53.230;10.444;2024-02-26T13:28:42;9.20;99.90
12025;DHT22;6073;53.230;10.444;2024-02-26T13:31:10;9.30;99.90
12025;DHT22;6073;53.230;10.444;2024-02-26T13:33:46;9.30;99.90
12025;DHT22;6073;53.230;10.444;2024-02-26T13:36:12;9.40;99.90
12025;DHT22;6073;53.230;10.444;2024-02-26T13:39:01;9.50;99.90
12025;DHT22;6073;53.230;10.444;2024-02-26T13:44:53;9.60;99.90
12025;DHT22;6073;53.230;10.444;2024-02-26T13:47:53;9.70;99.90
12025;DHT22;6073;53.230;10.444;2024-02-26T13:50:22;9.90;99.90
12025;DHT22;6073;53.230;10.444;2024-02-26T13:53:29;9.80;99.90
12025;DHT22;6073;53.230;10.444;2024-02-26T13:55:55;9.70;99.90
12025;DHT22;6073;53.230;10.444;2024-02-26T13:58:21;9.60;99.90
12025;DHT22;6073;53.230;10.444;2024-02-26T14:00:49;9.50;99.90
12025;DHT22;6073;53.230;10.444;2024-02-26T14:03:14;9.40;99.90
12025;DHT22;6073;53.230;10.444;2024-02-26T14:05:41;9.40;99.90
12025;DHT22;6073;53.230;10.444;2024-02-26T14:08:07;9.40;99.90
12025;DHT22;6073;53.230;10.444;2024-02-26T14:10:32;9.30;99.90
12025;DHT22;6073;53.230;10.444;2024-02-26T14:12:58;9.40;99.90
12025;DHT22;6073;53.230;10.444;2024-02-26T14:15:24;9.30;99.90
12025;DHT22;6073;53.230;10.444;2024-02-26T14:17:53;9.30;99.90
12025;DHT22;6073;53.230;10.444;2024-02-26T14:20:21;9.30;99.90
12025;DHT22;6073;53.230;10.444;2024-02-26T14:22:48;9.20;99.90
12025;DHT22;6073;53.230;10.444;2024-02-26T14:25:14;9.20;99.90
12025;DHT22;6073;53.230;10.444;2024-02-26T14:27:39;9.30;99.90
12025;DHT22;6073;53.230;10.444;2024-02-26T14:30:06;9.20;99.90
12025;DHT22;6073;53.230;10.444;2024-02-26T14:32:31;9.20;99.90
12025;DHT22;6073;53.230;10.444;2024-02-26T14:35:00;9.20;99.90
12025;DHT22;6073;53.230;10.444;2024-02-26T14:37:26;9.10;99.90
12025;DHT22;6073;53.230;10.444;2024-02-26T14:39:51;9.20;99.90
12025;DHT22;6073;53.230;10.444;2024-02-26T14:42:18;9.10;99.90
12025;DHT22;6073;53.230;10.444;2024-02-26T14:44:44;9.10;99.90
12025;DHT22;6073;53.230;10.444;2024-02-26T14:47:09;9.00;99.90
12025;DHT22;6073;53.230;10.444;2024-02-26T14:49:35;8.90;99.90
12025;DHT22;6073;53.230;10.444;2024-02-26T14:52:00;8.90;99.90
12025;DHT22;6073;53.230;10.444;2024-02-26T14:54:28;8.90;99.90
12025;DHT22;6073;53.230;10.444;2024-02-26T14:56:58;8.80;99.90
12025;DHT22;6073;53.230;10.444;2024-02-26T14:59:23;8.80;99.90
12025;DHT22;6073;53.230;10.444;2024-02-26T15:01:49;8.70;99.90
12025;DHT22;6073;53.230;10.444;2024-02-26T15:04:14;8.70;99.90
12025;DHT22;6073;53.230;10.444;2024-02-26T15:06:40;8.70;99.90
12025;DHT22;6073;53.230;10.444;2024-02-26T15:09:06;8.60;99.90
12025;DHT22;6073;53.230;10.444;2024-02-26T15:11:32;8.50;99.90
12025;DHT22;6073;53.230;10.444;2024-02-26T15:13:58;8.50;99.90
12025;DHT22;6073;53.230;10.444;2024-02-26T15:16:23;8.50;99.90
12025;DHT22;6073;53.230;10.444;2024-02-26T15:18:49;8.40;99.90
12025;DHT22;6073;53.230;10.444;2024-02-26T15:21:14;8.40;99.90
12025;DHT22;6073;53.230;10.444;2024-02-26T15:23:43;8.40;99.90
12025;DHT22;6073;53.230;10.444;2024-02-26T15:26:12;8.30;99.90
12025;DHT22;6073;53.230;10.444;2024-02-26T15:28:38;8.20;99.90
12025;DHT22;6073;53.230;10.444;2024-02-26T15:31:05;8.10;99.90
12025;DHT22;6073;53.230;10.444;2024-02-26T15:33:30;8.00;99.90
12025;DHT22;6073;53.230;10.444;2024-02-26T15:35:56;8.00;99.90
12025;DHT22;6073;53.230;10.444;2024-02-26T15:38:21;7.90;99.90
12025;DHT22;6073;53.230;10.444;2024-02-26T15:40:47;7.80;99.90
12025;DHT22;6073;53.230;10.444;2024-02-26T15:43:13;7.80;99.90
12025;DHT22;6073;53.230;10.444;2024-02-26T15:45:39;7.70;99.90
12025;DHT22;6073;53.230;10.444;2024-02-26T15:48:04;7.70;99.90
12025;DHT22;6073;53.230;10.444;2024-02-26T15:50:30;7.60;99.90
12025;DHT22;6073;53.230;10.444;2024-02-26T15:52:56;7.60;99.90
12025;DHT22;6073;53.230;10.444;2024-02-26T15:55:23;7.50;99.90
12025;DHT22;6073;53.230;10.444;2024-02-26T15:57:49;7.50;99.90
12025;DHT22;6073;53.230;10.444;2024-02-26T16:00:14;7.40;99.90
12025;DHT22;6073;53.230;10.444;2024-02-26T16:02:40;7.30;99.90
12025;DHT22;6073;53.230;10.444;2024-02-26T16:05:07;7.20;99.90
12025;DHT22;6073;53.230;10.444;2024-02-26T16:07:55;7.30;99.90
12025;DHT22;6073;53.230;10.444;2024-02-26T16:10:23;7.20;99.90
12025;DHT22;6073;53.230;10.444;2024-02-26T16:12:54;7.10;99.90
12025;DHT22;6073;53.230;10.444;2024-02-26T16:15:21;7.10;99.90
12025;DHT22;6073;53.230;10.444;2024-02-26T16:17:48;7.10;99.90
12025;DHT22;6073;53.230;10.444;2024-02-26T16:20:18;6.90;99.90
12025;DHT22;6073;53.230;10.444;2024-02-26T16:22:44;6.90;99.90
12025;DHT22;6073;53.230;10.444;2024-02-26T16:25:10;6.80;99.90
12025;DHT22;6073;53.230;10.444;2024-02-26T16:27:36;6.80;99.90
12025;DHT22;6073;53.230;10.444;2024-02-26T16:30:03;6.80;99.90
12025;DHT22;6073;53.230;10.444;2024-02-26T16:32:31;6.70;99.90